EA1CZ-2
43.05.15N 006.33.28W
IN63RC aprs.fi
zuletzt gehoert:
2023-02-06T16:13:47Z
zuerst gehoert:
2020-02-10T15:27:12Z

APRS IN63RC, 2 Stunde(n), EA1CZ-2 [17:28:12, 0s].
EA1CZ 43.05.15N 006.33.28WIN63RC 0.199km 311°NW16:13:47ZWIDE3-3 ESAS3-3(3EA1CZ-2)
ED1YBD 43.09.56N 006.29.74WIN63SD 9.492km 29°NNE16:15:24ZWIDE3-3 ESAS3-3 WX3IN1+ DIGI/IGATE(3ED1YBD-3)
LEBO 43.01.62N 006.53.05WIN63NA 27.685km 257°WSW16:00:04ZHelipuerto de Ibias: LEAS 061500Z 08014G24KT 040V120 9999 SCT034 10/03 Q1029 NOSIG=
LETN 43.20.05N 006.22.69WIN63TI 31.117km 27°NNE16:00:05ZAerodromo de La Curiscada (Tineo): LEAS 061500Z 08014G24KT 040V120 9999 SCT034 10/03 Q1029 NOSIG=
EA1GGY 42.51.00N 006.18.51WIN62UU 32.812km 143°SE15:29:45ZWind 104°/003kn, Böen bis 011kn, Temp 13.89c, Regen 0.0mm, letzte 24h 0.0mm, seit 0h 0.0mm, Baro 1016.1h, Hum: 22%(3EA1GGY-1)
UI-View32 V2.03(2EA1GGY)

aprs.pl 5.0.011w DL3EL © 2006-2021 [10434226]